createdAt,value
2017-09-04T00:02:49.249Z,14.87
2017-09-04T00:07:52.449Z,13.43
2017-09-04T00:12:55.655Z,15.13
2017-09-04T00:17:58.872Z,14.77
2017-09-04T00:23:02.073Z,13.60
2017-09-04T00:28:05.272Z,14.63
2017-09-04T00:33:08.498Z,17.43
2017-09-04T00:38:11.681Z,20.00
2017-09-04T00:43:14.888Z,18.73
2017-09-04T00:48:18.097Z,18.07
2017-09-04T00:53:21.329Z,19.73
2017-09-04T00:58:24.666Z,20.00
2017-09-04T01:03:27.913Z,16.33
2017-09-04T01:08:31.081Z,13.73
2017-09-04T01:13:34.288Z,15.23
2017-09-04T01:18:37.517Z,24.23
2017-09-04T01:23:40.731Z,14.60
2017-09-04T01:28:43.947Z,17.10
2017-09-04T01:33:47.142Z,14.60
2017-09-04T01:38:50.344Z,16.00
2017-09-04T01:43:53.585Z,17.93
2017-09-04T01:48:56.797Z,24.33
2017-09-04T01:54:00.163Z,17.87
2017-09-04T01:59:03.377Z,17.60
2017-09-04T02:04:06.959Z,16.13
2017-09-04T02:09:10.181Z,16.23
2017-09-04T02:14:13.407Z,17.30
2017-09-04T02:19:16.716Z,16.43
2017-09-04T02:24:20.097Z,19.47
2017-09-04T02:29:23.373Z,16.07
2017-09-04T02:34:26.650Z,13.70
2017-09-04T02:39:29.959Z,16.50
2017-09-04T02:44:33.164Z,20.77
2017-09-04T02:49:36.347Z,19.60
2017-09-04T02:54:39.551Z,24.25
2017-09-04T02:59:42.764Z,15.40
2017-09-04T03:04:45.976Z,16.27
2017-09-04T03:09:49.215Z,20.83
2017-09-04T03:14:52.434Z,20.90
2017-09-04T03:19:55.676Z,20.73
2017-09-04T03:24:58.867Z,20.57
2017-09-04T03:30:02.306Z,19.37
2017-09-04T03:35:05.521Z,20.37
2017-09-04T03:40:08.797Z,22.33
2017-09-04T03:45:11.979Z,17.43
2017-09-04T03:50:15.176Z,15.97
2017-09-04T03:55:18.401Z,25.97
2017-09-04T04:00:21.612Z,18.80
2017-09-04T04:05:24.789Z,22.20
2017-09-04T04:10:27.953Z,23.60
2017-09-04T04:15:31.260Z,24.03
2017-09-04T04:20:34.456Z,21.20
2017-09-04T04:25:37.652Z,23.67
2017-09-04T04:30:40.838Z,20.30
2017-09-04T04:35:44.060Z,21.47
2017-09-04T04:40:47.262Z,26.37
2017-09-04T04:45:50.480Z,21.50
2017-09-04T04:50:53.734Z,23.97
2017-09-04T04:55:56.942Z,18.67
2017-09-04T05:01:00.158Z,18.60
2017-09-04T05:06:03.379Z,21.60
2017-09-04T05:11:06.607Z,19.77
2017-09-04T05:16:09.812Z,13.80
2017-09-04T05:21:13.033Z,18.13
2017-09-04T05:26:16.259Z,17.00
2017-09-04T05:31:19.499Z,15.30
2017-09-04T05:36:22.706Z,17.20
2017-09-04T05:41:26.049Z,22.00
2017-09-04T05:46:29.258Z,19.97
2017-09-04T05:51:32.494Z,19.97
2017-09-04T05:56:35.729Z,20.20
2017-09-04T06:01:38.926Z,24.00
2017-09-04T06:06:42.122Z,24.90
2017-09-04T06:11:45.400Z,19.00
2017-09-04T06:16:48.602Z,20.60
2017-09-04T06:21:51.810Z,15.87
2017-09-04T06:26:55.046Z,17.73
2017-09-04T06:31:58.250Z,22.07
2017-09-04T06:37:01.442Z,25.00
2017-09-04T06:42:04.658Z,19.33
2017-09-04T06:47:07.854Z,21.23
2017-09-04T06:52:11.062Z,18.73
2017-09-04T06:57:14.312Z,18.87
2017-09-04T07:02:17.530Z,18.10
2017-09-04T07:07:20.735Z,18.80
2017-09-04T07:12:23.935Z,15.63
2017-09-04T07:17:27.171Z,23.60
2017-09-04T07:22:30.386Z,21.80
2017-09-04T07:27:33.550Z,16.17
2017-09-04T07:32:36.787Z,23.60
2017-09-04T07:37:39.997Z,18.50
2017-09-04T07:42:43.230Z,28.23
2017-09-04T07:47:46.516Z,22.90
2017-09-04T07:52:49.731Z,18.27
2017-09-04T07:57:52.909Z,20.63
2017-09-04T08:02:56.144Z,16.97
2017-09-04T08:07:59.341Z,20.80
2017-09-04T08:13:02.549Z,21.23
2017-09-04T08:18:05.753Z,22.87
2017-09-04T08:23:08.988Z,16.90
2017-09-04T08:28:12.220Z,16.50
2017-09-04T08:33:15.437Z,17.33
2017-09-04T08:38:18.713Z,17.30
2017-09-04T08:43:21.964Z,15.33
2017-09-04T08:48:25.173Z,14.87
2017-09-04T08:53:28.440Z,18.60
2017-09-04T08:58:31.662Z,14.10
2017-09-04T09:03:34.898Z,17.10
2017-09-04T09:08:38.136Z,15.93
2017-09-04T09:13:41.320Z,20.33
2017-09-04T09:18:44.540Z,16.90
2017-09-04T09:23:47.750Z,18.80
2017-09-04T09:28:50.968Z,15.53
2017-09-04T09:33:54.203Z,16.87
2017-09-04T09:38:57.412Z,19.03
2017-09-04T09:44:00.626Z,21.80
2017-09-04T09:49:03.825Z,13.43
2017-09-04T09:54:07.069Z,14.83
2017-09-04T09:59:10.306Z,15.70
2017-09-04T10:04:13.527Z,14.80
2017-09-04T10:09:16.730Z,12.70
2017-09-04T10:14:19.946Z,12.90
2017-09-04T10:19:23.178Z,13.17
2017-09-04T10:24:26.405Z,13.60
2017-09-04T10:29:29.611Z,14.20
2017-09-04T10:34:32.833Z,12.10
2017-09-04T10:39:36.054Z,14.50
2017-09-04T10:44:39.256Z,11.17
2017-09-04T10:49:42.472Z,11.97
2017-09-04T10:54:45.670Z,14.47
2017-09-04T10:59:48.911Z,8.73
2017-09-04T11:04:52.124Z,10.55
2017-09-04T11:09:56.232Z,10.00
2017-09-04T11:14:59.429Z,7.07
2017-09-04T11:20:02.701Z,9.00
2017-09-04T11:25:05.882Z,7.30
2017-09-04T11:30:09.097Z,6.90
2017-09-04T11:35:12.292Z,8.60
2017-09-04T11:40:15.494Z,14.33
2017-09-04T11:45:18.735Z,9.87
2017-09-04T11:50:21.937Z,9.07
2017-09-04T11:55:25.198Z,12.10
2017-09-04T12:00:28.631Z,16.40
2017-09-04T12:05:31.837Z,9.50
2017-09-04T12:10:35.088Z,12.20
2017-09-04T12:15:38.303Z,9.73
2017-09-04T12:20:41.523Z,9.63
2017-09-04T12:25:44.835Z,8.93
2017-09-04T12:30:48.001Z,10.03
2017-09-04T12:35:51.226Z,8.20
2017-09-04T12:40:54.447Z,13.70
2017-09-04T12:45:57.661Z,10.23
2017-09-04T12:51:00.856Z,7.03
2017-09-04T12:56:04.105Z,7.70
2017-09-04T13:01:07.318Z,7.30
2017-09-04T13:06:10.518Z,5.83
2017-09-04T13:11:19.377Z,5.60
2017-09-04T13:16:28.178Z,8.87
2017-09-04T13:21:36.940Z,5.73
2017-09-04T13:26:45.675Z,7.47
2017-09-04T13:31:54.306Z,5.83
2017-09-04T13:37:03.085Z,6.68
2017-09-04T13:42:11.759Z,5.20
2017-09-04T14:03:36.549Z,5.03
2017-09-04T14:08:45.410Z,5.90
2017-09-04T14:13:54.037Z,5.30
2017-09-04T14:18:57.214Z,5.40
2017-09-04T14:24:00.428Z,5.53
2017-09-04T14:29:03.666Z,5.20
2017-09-04T14:34:06.875Z,5.73
2017-09-04T14:39:10.094Z,4.60
2017-09-04T14:44:15.277Z,6.93
2017-09-04T14:49:18.837Z,6.37
2017-09-04T14:54:22.043Z,6.70
2017-09-04T14:59:25.267Z,6.03
2017-09-04T15:04:28.491Z,4.93
2017-09-04T15:09:31.746Z,7.80
2017-09-04T15:14:35.277Z,6.83
2017-09-04T15:19:38.568Z,4.90
2017-09-04T15:24:41.773Z,6.10
2017-09-04T15:29:44.980Z,6.40
2017-09-04T15:34:48.192Z,7.37
2017-09-04T15:39:51.415Z,12.70
2017-09-04T15:44:54.625Z,11.40
2017-09-04T15:49:57.836Z,12.13
2017-09-04T15:55:01.054Z,7.53
2017-09-04T16:00:04.247Z,8.10
2017-09-04T16:05:07.456Z,10.10
2017-09-04T16:10:11.467Z,7.67
2017-09-04T16:15:17.520Z,7.47
2017-09-04T16:20:23.690Z,12.80
2017-09-04T16:25:28.158Z,11.93
2017-09-04T16:36:14.973Z,9.33
2017-09-04T16:41:19.017Z,8.80
2017-09-04T16:46:23.598Z,10.53
2017-09-04T16:51:32.172Z,7.07
2017-09-04T16:56:48.120Z,7.17
2017-09-04T17:01:51.450Z,9.47
2017-09-04T17:06:54.686Z,9.20
2017-09-04T17:12:09.590Z,8.97
2017-09-04T17:17:13.314Z,12.23
2017-09-04T17:22:17.191Z,7.70
2017-09-04T17:27:20.441Z,8.63
2017-09-04T17:32:23.661Z,8.73
2017-09-04T17:37:26.835Z,6.53
2017-09-04T17:42:30.075Z,6.07
2017-09-04T17:47:33.304Z,5.60
2017-09-04T17:52:36.512Z,6.90
2017-09-04T17:57:39.741Z,5.53
2017-09-04T18:02:43.008Z,5.03
2017-09-04T18:07:46.173Z,6.15
2017-09-04T18:12:49.367Z,5.50
2017-09-04T18:17:52.583Z,11.10
2017-09-04T18:22:55.755Z,7.90
2017-09-04T18:27:58.974Z,8.43
2017-09-04T18:33:02.170Z,6.70
2017-09-04T18:38:05.370Z,18.00
2017-09-04T18:43:08.612Z,7.97
2017-09-04T18:48:11.946Z,6.20
2017-09-04T18:53:15.238Z,9.20
2017-09-04T18:58:18.463Z,7.70
2017-09-04T19:03:21.683Z,7.70
2017-09-04T19:08:24.911Z,5.90
2017-09-04T19:13:28.168Z,6.68
2017-09-04T19:18:31.357Z,7.60
2017-09-04T19:23:34.604Z,8.10
2017-09-04T19:28:37.852Z,5.73
2017-09-04T19:33:41.115Z,10.27
2017-09-04T19:38:44.342Z,10.67
2017-09-04T19:43:47.550Z,7.70
2017-09-04T19:48:50.855Z,7.70
2017-09-04T19:53:54.135Z,7.57
2017-09-04T19:58:57.409Z,5.13
2017-09-04T20:04:00.671Z,5.70
2017-09-04T20:09:03.865Z,6.80
2017-09-04T20:14:07.096Z,6.33
2017-09-04T20:19:10.307Z,8.37
2017-09-04T20:24:13.525Z,9.23
2017-09-04T20:29:16.696Z,5.50
2017-09-04T20:34:19.912Z,8.00
2017-09-04T20:39:23.118Z,6.00
2017-09-04T20:44:26.335Z,7.77
2017-09-04T20:49:29.615Z,6.27
2017-09-04T20:54:32.841Z,7.20
2017-09-04T20:59:36.194Z,11.73
2017-09-04T21:04:39.608Z,53.80
2017-09-04T21:09:42.803Z,10.30
2017-09-04T21:14:46.030Z,11.23
2017-09-04T21:19:49.203Z,9.67
2017-09-04T21:24:52.429Z,10.10
2017-09-04T21:29:55.639Z,10.37
2017-09-04T21:34:58.959Z,11.07
2017-09-04T21:40:02.187Z,8.53
2017-09-04T21:45:05.441Z,11.77
2017-09-04T21:50:08.664Z,6.97
2017-09-04T21:55:11.899Z,8.73
2017-09-04T22:00:15.159Z,8.00
2017-09-04T22:05:18.384Z,7.70
2017-09-04T22:10:21.745Z,10.07
2017-09-04T22:15:24.956Z,10.40
2017-09-04T22:20:28.183Z,8.07
2017-09-04T22:25:31.365Z,7.20
2017-09-04T22:30:34.608Z,8.20
2017-09-04T22:35:37.837Z,7.50
2017-09-04T22:40:41.062Z,8.73
2017-09-04T22:45:44.291Z,11.10
2017-09-04T22:50:47.501Z,7.53
2017-09-04T22:55:50.843Z,12.77
2017-09-04T23:00:54.047Z,8.07
2017-09-04T23:05:57.268Z,9.20
2017-09-04T23:11:00.485Z,9.50
2017-09-04T23:16:03.701Z,7.93
2017-09-04T23:21:06.913Z,10.63
2017-09-04T23:26:10.143Z,14.13
2017-09-04T23:31:13.343Z,8.63
2017-09-04T23:36:16.611Z,10.63
2017-09-04T23:41:19.825Z,9.87
2017-09-04T23:46:23.047Z,13.10
2017-09-04T23:51:26.316Z,11.80
2017-09-04T23:56:29.525Z,9.15
